createdAt,value
2016-04-21T00:00:16.052Z,1013.25
2016-04-21T00:01:16.086Z,1013.19
2016-04-21T00:02:16.136Z,1013.21
2016-04-21T00:03:16.154Z,1013.22
2016-04-21T00:04:16.203Z,1013.19
2016-04-21T00:05:16.238Z,1013.18
2016-04-21T00:06:16.271Z,1013.22
2016-04-21T00:07:16.305Z,1013.15
2016-04-21T00:08:16.339Z,1013.18
2016-04-21T00:09:16.374Z,1013.15
2016-04-21T00:10:16.455Z,1013.15
2016-04-21T00:11:16.441Z,1013.17
2016-04-21T00:12:16.475Z,1013.1
2016-04-21T00:13:16.525Z,1013.12
2016-04-21T00:14:16.558Z,1013.12
2016-04-21T00:15:16.593Z,1013.16
2016-04-21T00:16:16.626Z,1013.14
2016-04-21T00:17:16.660Z,1013.15
2016-04-21T00:18:16.694Z,1013.12
2016-04-21T00:19:16.729Z,1013.18
2016-04-21T00:20:16.779Z,1013.11
2016-04-21T00:21:16.812Z,1013.14
2016-04-21T00:22:16.846Z,1013.12
2016-04-21T00:23:16.879Z,1013.13
2016-04-21T00:24:16.914Z,1013.1
2016-04-21T00:25:16.978Z,1013.05
2016-04-21T00:26:16.981Z,1013.04
2016-04-21T00:27:17.031Z,1013.03
2016-04-21T00:28:17.065Z,1013.02
2016-04-21T00:29:17.099Z,1012.99
2016-04-21T00:30:17.133Z,1013.02
2016-04-21T00:31:17.167Z,1012.95
2016-04-21T00:32:17.200Z,1012.98
2016-04-21T00:33:17.234Z,1012.93
2016-04-21T00:34:17.269Z,1012.94
2016-04-21T00:35:17.302Z,1012.98
2016-04-21T00:36:17.353Z,1012.93
2016-04-21T00:37:17.386Z,1012.94
2016-04-21T00:38:17.419Z,1012.95
2016-04-21T00:39:17.455Z,1012.96
2016-04-21T00:40:17.503Z,1012.93
2016-04-21T00:41:17.521Z,1012.93
2016-04-21T00:42:17.571Z,1012.89
2016-04-21T00:43:17.590Z,1012.93
2016-04-21T00:44:17.639Z,1012.92
2016-04-21T00:45:17.674Z,1012.89
2016-04-21T00:46:17.707Z,1012.91
2016-04-21T00:47:17.741Z,1012.94
2016-04-21T00:48:17.774Z,1012.9
2016-04-21T00:49:17.809Z,1012.93
2016-04-21T00:50:17.843Z,1012.89
2016-04-21T00:51:17.907Z,1012.9
2016-04-21T00:52:17.911Z,1012.92
2016-04-21T00:53:17.960Z,1012.86
2016-04-21T00:54:17.995Z,1012.86
2016-04-21T00:55:18.029Z,1012.83
2016-04-21T00:56:18.062Z,1012.79
2016-04-21T00:57:18.096Z,1012.84
2016-04-21T00:58:18.130Z,1012.88
2016-04-21T00:59:18.164Z,1012.86
2016-04-21T01:00:18.198Z,1012.92
2016-04-21T01:01:18.248Z,1012.89
2016-04-21T01:02:18.312Z,1012.88
2016-04-21T01:03:18.315Z,1012.9
2016-04-21T01:04:18.365Z,1012.86
2016-04-21T01:05:18.444Z,1012.87
2016-04-21T01:06:18.524Z,1012.84
2016-04-21T01:07:18.602Z,1012.8
2016-04-21T01:08:18.697Z,1012.8
2016-04-21T01:09:18.767Z,1012.8
2016-04-21T01:10:18.818Z,1012.8
2016-04-21T01:11:18.868Z,1012.79
2016-04-21T01:12:18.918Z,1012.8
2016-04-21T01:13:18.984Z,1012.8
2016-04-21T01:14:19.015Z,1012.76
2016-04-21T01:15:19.055Z,1012.76
2016-04-21T01:16:19.094Z,1012.81
2016-04-21T01:17:19.135Z,1012.81
2016-04-21T01:18:19.174Z,1012.79
2016-04-21T01:19:19.229Z,1012.78
2016-04-21T01:20:19.265Z,1012.78
2016-04-21T01:21:19.300Z,1012.79
2016-04-21T01:22:19.326Z,1012.77
2016-04-21T01:23:19.377Z,1012.78
2016-04-21T01:24:19.428Z,1012.79
2016-04-21T01:25:19.448Z,1012.78
2016-04-21T01:26:19.482Z,1012.77
2016-04-21T01:27:19.518Z,1012.74
2016-04-21T01:28:19.552Z,1012.76
2016-04-21T01:29:19.586Z,1012.79
2016-04-21T01:30:19.620Z,1012.75
2016-04-21T01:31:19.655Z,1012.77
2016-04-21T01:32:19.689Z,1012.78
2016-04-21T01:33:19.723Z,1012.76
2016-04-21T01:34:19.757Z,1012.79
2016-04-21T01:35:19.807Z,1012.79
2016-04-21T01:36:19.841Z,1012.8
2016-04-21T01:37:19.875Z,1012.78
2016-04-21T01:38:19.910Z,1012.74
2016-04-21T01:39:19.943Z,1012.73
2016-04-21T01:40:19.977Z,1012.71
2016-04-21T01:41:20.011Z,1012.69
2016-04-21T01:42:20.045Z,1012.69
2016-04-21T01:43:20.078Z,1012.75
2016-04-21T01:44:20.112Z,1012.71
2016-04-21T01:45:20.147Z,1012.7
2016-04-21T01:46:20.197Z,1012.67
2016-04-21T01:47:20.231Z,1012.72
2016-04-21T01:48:20.264Z,1012.67
2016-04-21T01:49:20.298Z,1012.68
2016-04-21T01:50:20.332Z,1012.69
2016-04-21T01:51:20.366Z,1012.67
2016-04-21T01:52:20.400Z,1012.67
2016-04-21T01:53:20.434Z,1012.67
2016-04-21T01:54:20.469Z,1012.66
2016-04-21T01:55:20.502Z,1012.63
2016-04-21T01:56:20.552Z,1012.66
2016-04-21T01:57:20.585Z,1012.64
2016-04-21T01:58:20.619Z,1012.66
2016-04-21T01:59:20.652Z,1012.65
2016-04-21T02:00:20.687Z,1012.66
2016-04-21T02:01:20.721Z,1012.66
2016-04-21T02:02:20.755Z,1012.68
2016-04-21T02:03:20.789Z,1012.67
2016-04-21T02:04:20.823Z,1012.67
2016-04-21T02:05:20.857Z,1012.67
2016-04-21T02:06:20.890Z,1012.7
2016-04-21T02:07:20.925Z,1012.7
2016-04-21T02:08:20.959Z,1012.71
2016-04-21T02:09:21.009Z,1012.71
2016-04-21T02:10:21.042Z,1012.68
2016-04-21T02:11:21.076Z,1012.65
2016-04-21T02:12:21.109Z,1012.69
2016-04-21T02:13:21.145Z,1012.61
2016-04-21T02:14:21.179Z,1012.64
2016-04-21T02:15:21.228Z,1012.63
2016-04-21T02:16:21.245Z,1012.66
2016-04-21T02:17:21.280Z,1012.65
2016-04-21T02:18:21.313Z,1012.63
2016-04-21T02:19:21.347Z,1012.6
2016-04-21T02:20:21.382Z,1012.6
2016-04-21T02:21:21.431Z,1012.57
2016-04-21T02:22:21.464Z,1012.59
2016-04-21T02:23:21.514Z,1012.63
2016-04-21T02:24:21.534Z,1012.61
2016-04-21T02:25:21.567Z,1012.61
2016-04-21T02:26:21.617Z,1012.62
2016-04-21T02:27:21.635Z,1012.66
2016-04-21T02:28:21.669Z,1012.61
2016-04-21T02:29:21.703Z,1012.61
2016-04-21T02:30:21.736Z,1012.58
2016-04-21T02:31:21.771Z,1012.57
2016-04-21T02:32:21.804Z,1012.55
2016-04-21T02:33:21.854Z,1012.55
2016-04-21T02:34:21.872Z,1012.54
2016-04-21T02:35:21.921Z,1012.57
2016-04-21T02:36:21.957Z,1012.57
2016-04-21T02:37:21.990Z,1012.57
2016-04-21T02:38:22.024Z,1012.52
2016-04-21T02:39:22.058Z,1012.53
2016-04-21T02:40:22.092Z,1012.52
2016-04-21T02:41:22.126Z,1012.51
2016-04-21T02:42:22.159Z,1012.51
2016-04-21T02:43:22.193Z,1012.53
2016-04-21T02:44:22.259Z,1012.48
2016-04-21T02:45:22.261Z,1012.51
2016-04-21T02:46:22.312Z,1012.48
2016-04-21T02:47:22.329Z,1012.52
2016-04-21T02:48:22.379Z,1012.55
2016-04-21T02:49:22.412Z,1012.53
2016-04-21T02:50:22.447Z,1012.53
2016-04-21T02:51:22.481Z,1012.57
2016-04-21T02:52:22.514Z,1012.58
2016-04-21T02:53:22.548Z,1012.58
2016-04-21T02:54:22.583Z,1012.56
2016-04-21T02:55:22.663Z,1012.55
2016-04-21T02:56:22.650Z,1012.52
2016-04-21T02:57:22.683Z,1012.51
2016-04-21T02:58:22.719Z,1012.5
2016-04-21T02:59:22.752Z,1012.49
2016-04-21T03:00:22.786Z,1012.5
2016-04-21T03:01:22.820Z,1012.51
2016-04-21T03:02:22.869Z,1012.52
2016-04-21T03:03:22.904Z,1012.5
2016-04-21T03:04:22.922Z,1012.5
2016-04-21T03:05:22.971Z,1012.49
2016-04-21T03:06:23.021Z,1012.47
2016-04-21T03:07:23.039Z,1012.45
2016-04-21T03:08:23.073Z,1012.47
2016-04-21T03:09:23.108Z,1012.44
2016-04-21T03:10:23.141Z,1012.46
2016-04-21T03:11:23.176Z,1012.5
2016-04-21T03:12:23.209Z,1012.44
2016-04-21T03:13:23.243Z,1012.47
2016-04-21T03:14:23.277Z,1012.45
2016-04-21T03:15:23.311Z,1012.43
2016-04-21T03:16:23.345Z,1012.45
2016-04-21T03:17:23.425Z,1012.41
2016-04-21T03:18:23.428Z,1012.39
2016-04-21T03:19:23.447Z,1012.39
2016-04-21T03:20:23.480Z,1012.35
2016-04-21T03:21:23.562Z,1012.34
2016-04-21T03:22:23.557Z,1012.35
2016-04-21T03:23:23.591Z,1012.36
2016-04-21T03:24:23.625Z,1012.37
2016-04-21T03:25:23.659Z,1012.42
2016-04-21T03:26:23.693Z,1012.4
2016-04-21T03:27:23.726Z,1012.38
2016-04-21T03:28:23.777Z,1012.39
2016-04-21T03:29:23.810Z,1012.36
2016-04-21T03:30:23.844Z,1012.34
2016-04-21T03:31:23.878Z,1012.31
2016-04-21T03:32:23.912Z,1012.31
2016-04-21T03:33:23.946Z,1012.32
2016-04-21T03:34:23.980Z,1012.32
2016-04-21T03:35:24.014Z,1012.29
2016-04-21T03:36:24.064Z,1012.28
2016-04-21T03:37:24.082Z,1012.24
2016-04-21T03:38:24.116Z,1012.29
2016-04-21T03:39:24.150Z,1012.28
2016-04-21T03:40:24.214Z,1012.26
2016-04-21T03:41:24.217Z,1012.28
2016-04-21T03:42:24.252Z,1012.28
2016-04-21T03:43:24.286Z,1012.28
2016-04-21T03:44:24.319Z,1012.31
2016-04-21T03:45:24.353Z,1012.28
2016-04-21T03:46:24.402Z,1012.3
2016-04-21T03:47:24.453Z,1012.35
2016-04-21T03:48:24.471Z,1012.36
2016-04-21T03:49:24.505Z,1012.34
2016-04-21T03:50:24.538Z,1012.34
2016-04-21T03:51:24.588Z,1012.34
2016-04-21T03:52:24.606Z,1012.35
2016-04-21T03:53:24.641Z,1012.39
2016-04-21T03:54:24.674Z,1012.41
2016-04-21T03:55:24.709Z,1012.36
2016-04-21T03:56:24.743Z,1012.42
2016-04-21T03:57:24.776Z,1012.39
2016-04-21T03:58:24.826Z,1012.38
2016-04-21T03:59:24.844Z,1012.35
2016-04-21T04:00:24.878Z,1012.44
2016-04-21T04:01:24.912Z,1012.43
2016-04-21T04:02:24.993Z,1012.39
2016-04-21T04:03:24.980Z,1012.39
2016-04-21T04:04:25.014Z,1012.38
2016-04-21T04:05:25.048Z,1012.4
2016-04-21T04:06:25.097Z,1012.42
2016-04-21T04:07:25.131Z,1012.42
2016-04-21T04:08:25.164Z,1012.42
2016-04-21T04:09:25.184Z,1012.41
2016-04-21T04:10:25.249Z,1012.42
2016-04-21T04:11:25.267Z,1012.4
2016-04-21T04:12:25.300Z,1012.38
2016-04-21T04:13:25.335Z,1012.35
2016-04-21T04:14:25.368Z,1012.37
2016-04-21T04:15:25.402Z,1012.37
2016-04-21T04:16:25.436Z,1012.37
2016-04-21T04:17:25.471Z,1012.36
2016-04-21T04:18:25.505Z,1012.35
2016-04-21T04:19:25.538Z,1012.39
2016-04-21T04:20:25.572Z,1012.38
2016-04-21T04:21:25.622Z,1012.42
2016-04-21T04:22:25.641Z,1012.43
2016-04-21T04:23:25.674Z,1012.43
2016-04-21T04:24:25.708Z,1012.41
2016-04-21T04:25:25.757Z,1012.43
2016-04-21T04:26:25.776Z,1012.41
2016-04-21T04:27:25.810Z,1012.38
2016-04-21T04:28:25.843Z,1012.41
2016-04-21T04:29:25.879Z,1012.45
2016-04-21T04:30:25.928Z,1012.44
2016-04-21T04:31:25.946Z,1012.47
2016-04-21T04:32:25.995Z,1012.49
2016-04-21T04:33:26.029Z,1012.48
2016-04-21T04:34:26.063Z,1012.48
2016-04-21T04:35:26.098Z,1012.49
2016-04-21T04:36:26.162Z,1012.5
2016-04-21T04:37:26.165Z,1012.48
2016-04-21T04:38:26.200Z,1012.49
2016-04-21T04:39:26.280Z,1012.46
2016-04-21T04:40:26.267Z,1012.48
2016-04-21T04:41:26.300Z,1012.47
2016-04-21T04:42:26.335Z,1012.46
2016-04-21T04:43:26.369Z,1012.47
2016-04-21T04:44:26.403Z,1012.48
2016-04-21T04:45:26.436Z,1012.5
2016-04-21T04:46:26.611Z,1012.46
2016-04-21T04:47:26.519Z,1012.45
2016-04-21T04:48:26.555Z,1012.44
2016-04-21T04:49:26.588Z,1012.41
2016-04-21T04:50:26.622Z,1012.41
2016-04-21T04:51:26.718Z,1012.43
2016-04-21T04:52:26.768Z,1012.42
2016-04-21T04:53:26.724Z,1012.42
2016-04-21T04:54:27.008Z,1012.41
2016-04-21T04:55:26.792Z,1012.43
2016-04-21T04:56:26.826Z,1012.43
2016-04-21T04:57:26.860Z,1012.41
2016-04-21T04:58:28.268Z,1012.38
2016-04-21T04:59:26.927Z,1012.37
2016-04-21T05:00:26.992Z,1012.4
2016-04-21T05:01:27.215Z,1012.36
2016-04-21T05:02:27.920Z,1012.38
2016-04-21T05:03:27.282Z,1012.37
2016-04-21T05:04:27.112Z,1012.39
2016-04-21T05:05:27.162Z,1012.39
2016-04-21T05:06:27.211Z,1012.42
2016-04-21T05:07:27.214Z,1012.41
2016-04-21T05:08:27.249Z,1012.42
2016-04-21T05:09:27.283Z,1012.41
2016-04-21T05:10:27.317Z,1012.44
2016-04-21T05:11:27.350Z,1012.39
2016-04-21T05:12:27.384Z,1012.42
2016-04-21T05:13:27.418Z,1012.42
2016-04-21T05:14:27.467Z,1012.42
2016-04-21T05:15:27.502Z,1012.42
2016-04-21T05:16:27.536Z,1012.44
2016-04-21T05:17:27.585Z,1012.43
2016-04-21T05:18:27.603Z,1012.45
2016-04-21T05:19:27.638Z,1012.46
2016-04-21T05:20:27.672Z,1012.46
2016-04-21T05:21:27.736Z,1012.48
2016-04-21T05:22:27.739Z,1012.48
2016-04-21T05:23:27.773Z,1012.46
2016-04-21T05:24:27.823Z,1012.46
2016-04-21T05:25:27.935Z,1012.44
2016-04-21T05:26:27.890Z,1012.46
2016-04-21T05:27:27.924Z,1012.46
2016-04-21T05:28:28.146Z,1012.43
2016-04-21T05:29:28.180Z,1012.49
2016-04-21T05:30:28.043Z,1012.44
2016-04-21T05:31:28.248Z,1012.48
2016-04-21T05:32:28.095Z,1012.51
2016-04-21T05:33:28.165Z,1012.51
2016-04-21T05:34:29.653Z,1012.54
2016-04-21T05:35:28.201Z,1012.54
2016-04-21T05:36:28.245Z,1012.52
2016-04-21T05:37:28.275Z,1012.48
2016-04-21T05:38:28.309Z,1012.47
2016-04-21T05:39:28.827Z,1012.49
2016-04-21T05:40:28.409Z,1012.5
2016-04-21T05:41:28.426Z,1012.49
2016-04-21T05:42:28.444Z,1012.54
2016-04-21T05:43:28.495Z,1012.5
2016-04-21T05:44:29.059Z,1012.48
2016-04-21T05:45:28.561Z,1012.49
2016-04-21T05:46:28.643Z,1012.53
2016-04-21T05:47:30.333Z,1012.53
2016-04-21T05:48:28.664Z,1012.58
2016-04-21T05:49:28.698Z,1012.55
2016-04-21T05:50:28.731Z,1012.56
2016-04-21T05:51:28.766Z,1012.56
2016-04-21T05:52:28.799Z,1012.56
2016-04-21T05:53:28.850Z,1012.49
2016-04-21T05:54:28.883Z,1012.52
2016-04-21T05:55:28.916Z,1012.48
2016-04-21T05:56:28.952Z,1012.48
2016-04-21T05:57:28.985Z,1012.47
2016-04-21T05:58:29.018Z,1012.49
2016-04-21T05:59:29.053Z,1012.46
2016-04-21T06:00:29.102Z,1012.47
2016-04-21T06:01:29.136Z,1012.49
2016-04-21T06:02:29.171Z,1012.46
2016-04-21T06:03:29.204Z,1012.44
2016-04-21T06:04:29.238Z,1012.4
2016-04-21T06:05:29.272Z,1012.4
2016-04-21T06:06:29.353Z,1012.41
2016-04-21T06:07:29.340Z,1012.39
2016-04-21T06:08:29.373Z,1012.34
2016-04-21T06:09:29.423Z,1012.35
2016-04-21T06:10:29.457Z,1012.36
2016-04-21T06:11:29.492Z,1012.36
2016-04-21T06:12:29.525Z,1012.35
2016-04-21T06:13:29.668Z,1012.31
2016-04-21T06:14:29.812Z,1012.32
2016-04-21T06:15:29.909Z,1012.33
2016-04-21T06:16:29.958Z,1012.33
2016-04-21T06:17:30.148Z,1012.32
2016-04-21T06:18:30.182Z,1012.35
2016-04-21T06:19:30.466Z,1012.35
2016-04-21T06:20:30.047Z,1012.35
2016-04-21T06:21:30.314Z,1012.32
2016-04-21T06:22:30.146Z,1012.31
2016-04-21T06:23:30.242Z,1012.32
2016-04-21T06:24:30.104Z,1012.28
2016-04-21T06:25:30.154Z,1012.3
2016-04-21T06:26:30.172Z,1012.29
2016-04-21T06:27:30.394Z,1012.33
2016-04-21T06:28:30.287Z,1012.28
2016-04-21T06:29:30.258Z,1012.34
2016-04-21T06:30:30.433Z,1012.3
2016-04-21T06:31:30.452Z,1012.32
2016-04-21T06:32:30.549Z,1012.31
2016-04-21T06:33:30.441Z,1012.32
2016-04-21T06:34:30.413Z,1012.26
2016-04-21T06:35:30.681Z,1012.29
2016-04-21T06:36:30.449Z,1012.29
2016-04-21T06:37:30.765Z,1012.28
2016-04-21T06:38:30.877Z,1012.27
2016-04-21T06:39:30.817Z,1012.27
2016-04-21T06:40:30.695Z,1012.26
2016-04-21T06:41:31.166Z,1012.28
2016-04-21T06:42:30.793Z,1012.27
2016-04-21T06:43:30.936Z,1012.27
2016-04-21T06:44:30.768Z,1012.27
2016-04-21T06:45:31.364Z,1012.24
2016-04-21T06:46:31.101Z,1012.22
2016-04-21T06:47:30.948Z,1012.2
2016-04-21T06:48:31.263Z,1012.2
2016-04-21T06:49:31.047Z,1012.16
2016-04-21T06:50:31.206Z,1012.2
2016-04-21T06:51:30.943Z,1012.16
2016-04-21T06:52:31.539Z,1012.16
2016-04-21T06:53:31.026Z,1012.2
2016-04-21T06:54:31.123Z,1012.2
2016-04-21T06:55:31.203Z,1012.19
2016-04-21T06:56:31.378Z,1012.17
2016-04-21T06:57:31.178Z,1012.15
2016-04-21T06:58:31.524Z,1012.18
2016-04-21T06:59:31.246Z,1012.17
2016-04-21T07:00:31.467Z,1012.16
2016-04-21T07:01:31.313Z,1012.16
2016-04-21T07:02:31.363Z,1012.15
2016-04-21T07:03:31.663Z,1012.19
2016-04-21T07:04:31.524Z,1012.16
2016-04-21T07:05:31.590Z,1012.17
2016-04-21T07:06:31.499Z,1012.17
2016-04-21T07:07:31.548Z,1012.15
2016-04-21T07:08:31.691Z,1012.17
2016-04-21T07:09:31.929Z,1012.13
2016-04-21T07:10:35.071Z,1012.16
2016-04-21T07:11:31.934Z,1012.17
2016-04-21T07:12:31.734Z,1012.12
2016-04-21T07:13:31.768Z,1012.16
2016-04-21T07:14:31.817Z,1012.15
2016-04-21T07:15:31.835Z,1012.16
2016-04-21T07:16:31.900Z,1012.12
2016-04-21T07:17:31.919Z,1012.11
2016-04-21T07:18:32.297Z,1012.07
2016-04-21T07:19:32.080Z,1012.06
2016-04-21T07:20:32.115Z,1012.11
2016-04-21T07:21:32.211Z,1012.08
2016-04-21T07:22:32.166Z,1012.09
2016-04-21T07:23:32.326Z,1012.1
2016-04-21T07:24:32.314Z,1012.06
2016-04-21T07:25:32.628Z,1012.05
2016-04-21T07:26:32.381Z,1012.09
2016-04-21T07:27:32.587Z,1012.08
2016-04-21T07:28:32.511Z,1012.1
2016-04-21T07:29:32.577Z,1012.1
2016-04-21T07:30:32.547Z,1012.09
2016-04-21T07:31:32.597Z,1012.1
2016-04-21T07:32:32.538Z,1012.14
2016-04-21T07:33:32.508Z,1012.13
2016-04-21T07:34:32.574Z,1012.15
2016-04-21T07:35:32.920Z,1012.1
2016-04-21T07:36:32.626Z,1012.07
2016-04-21T07:37:32.708Z,1012.05
2016-04-21T07:38:32.772Z,1012.05
2016-04-21T07:39:32.743Z,1012.08
2016-04-21T07:40:32.778Z,1012.06
2016-04-21T07:41:32.812Z,1012.07
2016-04-21T07:42:33.658Z,1012.08
2016-04-21T07:43:32.896Z,1012.05
2016-04-21T07:44:32.929Z,1012.06
2016-04-21T07:45:32.979Z,1012.04
2016-04-21T07:46:33.012Z,1012.08
2016-04-21T07:47:33.125Z,1012.05
2016-04-21T07:48:33.081Z,1012.05
2016-04-21T07:49:33.176Z,1012.09
2016-04-21T07:50:33.367Z,1012.05
2016-04-21T07:51:33.464Z,1012.08
2016-04-21T07:52:33.248Z,1012.03
2016-04-21T07:53:33.281Z,1012.03
2016-04-21T07:54:33.315Z,1012.05
2016-04-21T07:55:33.365Z,1012.04
2016-04-21T07:56:33.399Z,1012
2016-04-21T07:57:33.433Z,1012.02
2016-04-21T07:58:33.467Z,1011.99
2016-04-21T07:59:33.500Z,1012.02
2016-04-21T08:00:33.550Z,1012.04
2016-04-21T08:01:33.583Z,1012.03
2016-04-21T08:02:33.650Z,1012.04
2016-04-21T08:03:33.683Z,1012.02
2016-04-21T08:04:33.701Z,1012.03
2016-04-21T08:05:33.752Z,1011.98
2016-04-21T08:06:33.785Z,1011.97
2016-04-21T08:07:33.819Z,1012
2016-04-21T08:08:33.853Z,1011.97
2016-04-21T08:09:33.902Z,1011.97
2016-04-21T08:10:33.937Z,1012
2016-04-21T08:11:33.970Z,1012.01
2016-04-21T08:12:34.004Z,1012.05
2016-04-21T08:13:34.054Z,1012
2016-04-21T08:14:34.088Z,1012
2016-04-21T08:15:34.122Z,1011.98
2016-04-21T08:16:34.171Z,1011.95
2016-04-21T08:17:34.221Z,1011.95
2016-04-21T08:18:34.239Z,1011.98
2016-04-21T08:19:34.290Z,1012.01
2016-04-21T08:20:34.323Z,1011.99
2016-04-21T08:21:34.373Z,1011.99
2016-04-21T08:22:34.422Z,1011.98
2016-04-21T08:23:34.439Z,1012.01
2016-04-21T08:24:34.475Z,1012.07
2016-04-21T08:25:34.539Z,1012.03
2016-04-21T08:26:34.558Z,1012.06
2016-04-21T08:27:34.591Z,1012.06
2016-04-21T08:28:34.782Z,1012.03
2016-04-21T08:29:34.691Z,1012.01
2016-04-21T08:30:34.708Z,1012.03
2016-04-21T08:31:34.744Z,1012.02
2016-04-21T08:32:34.871Z,1011.99
2016-04-21T08:33:34.827Z,1012.01
2016-04-21T08:34:34.861Z,1012.02
2016-04-21T08:35:34.910Z,1012.02
2016-04-21T08:36:34.944Z,1011.99
2016-04-21T08:37:34.977Z,1012
2016-04-21T08:38:35.043Z,1011.98
2016-04-21T08:39:35.061Z,1011.97
2016-04-21T08:40:35.110Z,1011.99
2016-04-21T08:41:35.146Z,1011.99
2016-04-21T08:42:35.179Z,1011.97
2016-04-21T08:43:35.213Z,1011.99
2016-04-21T08:44:35.263Z,1011.97
2016-04-21T08:45:35.296Z,1012.03
2016-04-21T08:46:35.329Z,1012.01
2016-04-21T08:47:35.443Z,1012.04
2016-04-21T08:48:35.415Z,1012.05
2016-04-21T08:49:35.448Z,1012.05
2016-04-21T08:50:35.497Z,1012.05
2016-04-21T08:51:35.578Z,1012.05
2016-04-21T08:52:35.570Z,1012.05
2016-04-21T08:53:35.604Z,1012.06
2016-04-21T08:54:35.653Z,1011.99
2016-04-21T08:55:35.703Z,1011.99
2016-04-21T08:56:35.736Z,1011.98
2016-04-21T08:57:35.771Z,1011.98
2016-04-21T08:58:35.805Z,1011.93
2016-04-21T08:59:35.854Z,1011.91
2016-04-21T09:00:35.888Z,1011.95
2016-04-21T09:01:35.923Z,1011.92
2016-04-21T09:02:35.972Z,1011.86
2016-04-21T09:03:36.005Z,1011.89
2016-04-21T09:04:36.102Z,1011.88
2016-04-21T09:05:36.089Z,1011.85
2016-04-21T09:06:36.155Z,1011.86
2016-04-21T09:07:36.173Z,1011.85
2016-04-21T09:08:36.207Z,1011.8
2016-04-21T09:09:36.257Z,1011.82
2016-04-21T09:10:36.290Z,1011.82
2016-04-21T09:11:36.324Z,1011.84
2016-04-21T09:12:36.357Z,1011.82
2016-04-21T09:13:36.408Z,1011.81
2016-04-21T09:14:36.443Z,1011.75
2016-04-21T09:15:36.491Z,1011.76
2016-04-21T09:16:36.525Z,1011.77
2016-04-21T09:17:36.575Z,1011.77
2016-04-21T09:18:36.608Z,1011.77
2016-04-21T09:19:36.643Z,1011.73
2016-04-21T09:20:36.692Z,1011.75
2016-04-21T09:21:36.757Z,1011.71
2016-04-21T09:22:36.759Z,1011.7
2016-04-21T09:23:36.809Z,1011.73
2016-04-21T09:24:36.844Z,1011.7
2016-04-21T09:25:36.893Z,1011.68
2016-04-21T09:26:36.928Z,1011.69
2016-04-21T09:27:36.978Z,1011.72
2016-04-21T09:28:37.136Z,1011.67
2016-04-21T09:29:37.061Z,1011.68
2016-04-21T09:30:37.094Z,1011.67
2016-04-21T09:31:37.253Z,1011.66
2016-04-21T09:32:37.161Z,1011.64
2016-04-21T09:33:37.211Z,1011.64
2016-04-21T09:34:37.246Z,1011.61
2016-04-21T09:35:37.295Z,1011.66
2016-04-21T09:36:37.360Z,1011.67
2016-04-21T09:37:37.379Z,1011.59
2016-04-21T09:38:37.412Z,1011.6
2016-04-21T09:39:37.463Z,1011.55
2016-04-21T09:40:37.496Z,1011.52
2016-04-21T09:41:37.530Z,1011.53
2016-04-21T09:42:37.579Z,1011.53
2016-04-21T09:43:37.613Z,1011.5
2016-04-21T09:44:37.648Z,1011.5
2016-04-21T09:45:37.696Z,1011.52
2016-04-21T09:46:37.746Z,1011.64
2016-04-21T09:47:37.796Z,1011.88
2016-04-21T09:48:37.814Z,1012.06
2016-04-21T09:49:37.865Z,1012.12
2016-04-21T09:50:37.898Z,1012.17
2016-04-21T09:51:37.947Z,1012.15
2016-04-21T09:52:37.982Z,1012.24
2016-04-21T09:53:38.031Z,1012.17
2016-04-21T09:54:38.065Z,1012.24
2016-04-21T09:55:38.287Z,1012.23
2016-04-21T09:56:38.211Z,1012.24
2016-04-21T09:57:38.198Z,1012.24
2016-04-21T09:58:38.263Z,1012.21
2016-04-21T09:59:38.298Z,1012.26
2016-04-21T10:00:38.394Z,1012.24
2016-04-21T10:01:38.662Z,1012.25
2016-04-21T10:02:38.665Z,1012.31
2016-04-21T10:03:38.480Z,1012.32
2016-04-21T10:04:38.529Z,1012.34
2016-04-21T10:05:38.672Z,1012.37
2016-04-21T10:06:38.628Z,1012.41
2016-04-21T10:07:39.413Z,1012.34
2016-04-21T10:08:38.712Z,1012.42
2016-04-21T10:09:38.777Z,1012.37
2016-04-21T10:10:38.859Z,1012.35
2016-04-21T10:11:38.953Z,1012.35
2016-04-21T10:12:39.061Z,1012.32
2016-04-21T10:13:39.140Z,1012.33
2016-04-21T10:14:39.233Z,1012.33
2016-04-21T10:15:39.322Z,1012.36
2016-04-21T10:16:39.403Z,1012.39
2016-04-21T10:17:39.453Z,1012.33
2016-04-21T10:18:39.534Z,1012.36
2016-04-21T10:19:39.631Z,1012.34
2016-04-21T10:20:39.844Z,1012.41
2016-04-21T10:21:39.727Z,1012.42
2016-04-21T10:22:39.784Z,1012.4
2016-04-21T10:23:39.839Z,1012.38
2016-04-21T10:24:40.050Z,1012.36
2016-04-21T10:25:39.963Z,1012.31
2016-04-21T10:26:40.060Z,1012.32
2016-04-21T10:27:40.081Z,1012.3
2016-04-21T10:28:40.148Z,1012.29
2016-04-21T10:29:40.216Z,1012.23
2016-04-21T10:30:40.267Z,1012.29
2016-04-21T10:31:40.317Z,1012.22
2016-04-21T10:32:40.382Z,1012.23
2016-04-21T10:33:40.432Z,1012.21
2016-04-21T10:34:40.499Z,1012.18
2016-04-21T10:35:40.564Z,1012.16
2016-04-21T10:36:41.067Z,1012.15
2016-04-21T10:37:41.055Z,1012.16
2016-04-21T10:38:41.182Z,1012.12
2016-04-21T10:39:41.029Z,1012.1
2016-04-21T10:40:41.142Z,1012.13
2016-04-21T10:41:41.082Z,1012.03
2016-04-21T10:42:41.241Z,1011.97
2016-04-21T10:43:41.181Z,1011.88
2016-04-21T10:44:41.215Z,1011.84
2016-04-21T10:45:41.765Z,1011.82
2016-04-21T10:46:41.220Z,1011.79
2016-04-21T10:47:41.365Z,1011.78
2016-04-21T10:48:41.335Z,1011.77
2016-04-21T10:49:41.635Z,1011.76
2016-04-21T10:50:41.451Z,1011.74
2016-04-21T10:51:41.515Z,1011.71
2016-04-21T10:52:41.581Z,1011.66
2016-04-21T10:53:41.631Z,1011.62
2016-04-21T10:54:41.695Z,1011.63
2016-04-21T10:55:41.761Z,1011.56
2016-04-21T10:56:41.810Z,1011.52
2016-04-21T10:57:41.922Z,1011.54
2016-04-21T10:58:41.941Z,1011.56
2016-04-21T10:59:42.005Z,1011.53
2016-04-21T11:00:42.055Z,1011.53
2016-04-21T11:01:42.120Z,1011.53
2016-04-21T11:02:42.186Z,1011.48
2016-04-21T11:03:42.250Z,1011.51
2016-04-21T11:04:42.316Z,1011.5
2016-04-21T11:05:42.413Z,1011.52
2016-04-21T11:06:42.431Z,1011.46
2016-04-21T11:07:42.496Z,1011.47
2016-04-21T11:08:42.546Z,1011.46
2016-04-21T11:09:42.641Z,1011.44
2016-04-21T11:10:42.676Z,1011.45
2016-04-21T11:11:42.741Z,1011.41
2016-04-21T11:12:42.822Z,1011.39
2016-04-21T11:13:42.871Z,1011.36
2016-04-21T11:14:42.921Z,1011.35
2016-04-21T11:15:42.987Z,1011.32
2016-04-21T11:16:43.052Z,1011.33
2016-04-21T11:17:43.116Z,1011.27
2016-04-21T11:18:43.181Z,1011.24
2016-04-21T11:19:43.247Z,1011.2
2016-04-21T11:20:43.312Z,1011.19
2016-04-21T11:21:43.392Z,1011.18
2016-04-21T11:22:43.443Z,1011.14
2016-04-21T11:23:43.508Z,1011.13
2016-04-21T11:24:43.573Z,1011.11
2016-04-21T11:25:43.622Z,1011.09
2016-04-21T11:26:43.703Z,1011.05
2016-04-21T11:27:43.769Z,1011.04
2016-04-21T11:28:43.912Z,1011
2016-04-21T11:29:43.883Z,1011.01
2016-04-21T11:30:43.964Z,1011.03
2016-04-21T11:31:44.044Z,1011
2016-04-21T11:32:44.078Z,1010.98
2016-04-21T11:33:44.144Z,1010.96
2016-04-21T11:34:44.225Z,1010.98
2016-04-21T11:35:44.711Z,1010.97
2016-04-21T11:36:44.355Z,1010.96
2016-04-21T11:37:44.420Z,1010.98
2016-04-21T11:38:44.501Z,1010.94
2016-04-21T11:39:44.551Z,1010.99
2016-04-21T11:40:44.600Z,1010.93
2016-04-21T11:41:44.666Z,1010.97
2016-04-21T11:42:44.730Z,1010.94
2016-04-21T11:43:44.796Z,1010.95
2016-04-21T11:44:44.877Z,1010.9
2016-04-21T11:45:44.943Z,1010.92
2016-04-21T11:46:45.351Z,1010.91
2016-04-21T11:47:45.056Z,1010.91
2016-04-21T11:48:45.121Z,1010.96
2016-04-21T11:49:45.203Z,1010.93
2016-04-21T11:50:45.268Z,1010.97
2016-04-21T11:51:45.318Z,1010.98
2016-04-21T11:52:45.382Z,1010.95
2016-04-21T11:53:45.447Z,1010.92
2016-04-21T11:54:45.559Z,1010.91
2016-04-21T11:55:45.672Z,1010.87
2016-04-21T11:56:45.643Z,1010.91
2016-04-21T11:57:45.709Z,1010.93
2016-04-21T11:58:45.773Z,1010.91
2016-04-21T11:59:45.855Z,1010.93
2016-04-21T12:00:45.903Z,1010.91
2016-04-21T12:01:45.969Z,1010.91
2016-04-21T12:02:46.034Z,1010.91
2016-04-21T12:03:46.116Z,1010.91
2016-04-21T12:04:46.165Z,1010.88
2016-04-21T12:05:46.230Z,1010.83
2016-04-21T12:06:46.295Z,1010.84
2016-04-21T12:07:46.360Z,1010.85
2016-04-21T12:08:46.441Z,1010.83